Terminal Aerodrome Forecast
Issued by NWS

Home | Current Version | Previous Version | Text Only | Print | Product List | Glossary Off
Versions: 1 2 3 4 5 6 7 8 9 10 11 12 13 14 15 16 17

000
FTUS42 KMHX 211140
TAFOAJ
TAF
KOAJ 211140Z 2112/2212 12007KT P6SM VCSH SCT025 BKN040
     FM211900 22012KT 5SM SHRA VCTS BKN025CB
     FM212300 35008KT P6SM OVC025
     FM220300 33005KT P6SM OVC012
      AMD LTD TO CLD VIS AND WIND=

USA.gov is the U.S. government's official web portal to all federal, state and local government web resources and services.